Latest Weather Observations for Newdegate

IDW60801

Issued at 4:33 pm WST Thursday 30 June 2016 (issued every 30 minutes, with the page automatically refreshed every 10 minutes)

About weather observations | Map of weather stations | Latest weather observations for WA | Other Formats
Station Details ID: 010692 Name: NEWDEGATE RESEARCH STATION Lat: -33.11 Lon: 118.84 Height: 320.0 m
Data from the previous 72 hours. | See also: Recent months at Newdegate
Date/Time
WST
Temp
°C
App
Temp
°C
Dew
Point
°C
Rel
Hum
%
Delta-T
°C
Wind Press
QNH
hPa
Press
MSL
hPa
Rain since
9am
mm
Dir  Spd
km/h
Gust
km/h
Spd
kts
Gust
kts
30/04:30pm 13.4 11.2 6.0 61 3.6 W 7 13 4 7 1024.4 1024.6 0.2
30/04:00pm 13.7 11.3 6.8 63 3.4 WSW 9 13 5 7 1024.4 1024.6 0.2
30/03:30pm 13.4 10.3 5.6 59 3.7 W 11 15 6 8 1024.2 1024.4 0.2
30/03:00pm 14.7 12.5 6.0 56 4.2 WSW 7 13 4 7 1023.8 1024.0 0.2
30/02:30pm 15.0 11.6 6.0 55 4.4 W 13 20 7 11 1023.9 1024.1 0.2
30/02:00pm 14.2 9.6 5.8 57 4.0 WSW 19 24 10 13 1023.9 1024.1 0.2
30/01:30pm 13.8 9.6 5.9 59 3.8 WSW 17 22 9 12 1024.3 1024.5 0.2
30/01:00pm 14.6 10.9 6.2 57 4.1 W 15 20 8 11 1024.5 1024.7 0.2
30/12:30pm 14.7 11.2 7.3 61 3.7 WSW 15 24 8 13 1024.7 1024.9 0.2
30/12:00pm 13.9 10.4 7.0 63 3.4 WSW 15 22 8 12 1025.2 1025.4 0.2
30/11:30am 13.6 10.0 6.9 64 3.3 W 15 20 8 11 1025.6 1025.7 0.2
30/11:00am 12.8 9.6 6.8 67 2.9 WSW 13 19 7 10 1026.0 1026.1 0.2
30/10:30am 12.0 8.8 6.9 71 2.5 WSW 13 17 7 9 1026.1 1026.2 0.2
30/10:00am 11.1 8.8 7.6 79 1.7 W 9 13 5 7 1026.4 1026.6 0.2
30/09:30am 9.8 8.1 8.4 91 0.7 WNW 7 11 4 6 1026.4 1026.6 0.2
30/09:00am 7.8 6.3 6.7 93 0.5 NNE 4 6 2 3 1026.1 1026.2 0.2
30/08:30am 5.3 4.0 4.3 93 0.4 CALM 0 0 0 0 1025.8 1025.9 0.2
30/08:00am 3.4 1.4 2.4 93 0.4 S 2 2 1 1 1025.6 1025.7 0.2
30/07:30am 0.9 -1.9 -0.2 92 0.4 NNE 4 4 2 2 1025.3 1025.5 0.2
30/07:00am 1.5 -0.8 0.3 92 0.4 NNE 2 4 1 2 1025.0 1025.2 0.2
30/06:30am 3.2 0.8 2.2 93 0.4 W 4 6 2 3 1024.8 1025.0 0.2
30/06:00am 0.9 -1.5 -0.4 91 0.5 NW 2 4 1 2 1024.5 1024.7 0.2
30/05:30am 4.3 1.5 3.3 93 0.4 WNW 7 11 4 6 1024.3 1024.5 0.2
30/05:00am 1.7 -1.0 0.4 91 0.5 W 4 6 2 3 1024.2 1024.4 0.2
30/04:30am 2.0 -0.6 0.7 91 0.5 N 4 4 2 2 1024.1 1024.3 0.2
30/04:00am 4.4 1.8 3.1 91 0.5 W 6 6 3 3 1023.9 1024.1 0.2
30/03:30am 4.8 2.1 3.5 91 0.6 W 7 7 4 4 1023.8 1024.0 0.2
30/03:00am 4.8 2.3 3.6 92 0.5 W 6 6 3 3 1023.9 1024.1 0.2
30/02:30am 4.3 1.7 3.0 91 0.5 W 6 9 3 5 1023.8 1024.0 0.2
30/02:00am 3.4 1.0 2.1 91 0.5 W 4 4 2 2 1023.8 1024.0 0.2
30/01:30am 3.3 0.8 1.8 90 0.6 WNW 4 6 2 3 1023.6 1023.8 0.2
30/01:00am 5.4 2.8 4.1 91 0.6 WSW 7 9 4 5 1023.5 1023.7 0.2
30/12:30am 4.8 2.3 3.5 91 0.6 W 6 6 3 3 1023.4 1023.5 0.2
30/12:00am 5.1 3.4 3.8 91 0.6 NNW 2 4 1 2 1023.5 1023.7 0.2
 
Date/Time
WST
Temp
°C
App
Temp
°C
Dew
Point
°C
Rel
Hum
%
Delta-T
°C
Wind Press
QNH
hPa
Press
MSL
hPa
Rain since
9am
mm
Dir  Spd
km/h
Gust
km/h
Spd
kts
Gust
kts
29/11:30pm 6.7 4.3 5.3 91 0.6 WSW 7 9 4 5 1023.5 1023.7 0.2
29/11:00pm 6.8 4.4 5.4 91 0.6 WSW 7 9 4 5 1023.2 1023.3 0.2
29/10:30pm 7.2 4.5 5.8 91 0.6 WSW 9 11 5 6 1022.9 1023.0 0.2
29/10:00pm 7.0 4.7 5.5 90 0.7 WSW 7 9 4 5 1022.7 1022.8 0.2
29/09:30pm 7.1 4.4 5.7 91 0.6 WSW 9 11 5 6 1022.5 1022.6 0.2
29/09:00pm 6.9 4.5 5.2 89 0.8 WSW 7 9 4 5 1022.4 1022.5 0.2
29/08:30pm 7.1 4.7 5.3 88 0.8 W 7 9 4 5 1022.0 1022.2 0.2
29/08:00pm 7.1 4.7 5.1 87 0.9 W 7 7 4 4 1021.7 1021.9 0.2
29/07:30pm 8.1 6.0 5.7 85 1.1 W 6 6 3 3 1021.3 1021.5 0.2
29/07:00pm 9.4 7.3 6.7 83 1.3 WSW 7 9 4 5 1021.0 1021.2 0.2
29/06:30pm 11.2 8.3 8.1 81 1.5 SW 13 19 7 10 1020.5 1020.6 0.2
29/06:00pm 11.1 8.4 7.2 77 1.9 SW 11 17 6 9 1020.1 1020.2 0.2
29/05:30pm 11.0 9.0 7.1 77 1.9 WSW 7 11 4 6 1019.5 1019.6 0.2
29/05:00pm 11.3 8.9 6.8 74 2.2 SW 9 11 5 6 1019.0 1019.1 0.0
29/04:30pm 13.0 10.0 7.5 69 2.7 WSW 13 19 7 10 1018.5 1018.7 0.0
29/04:00pm 13.9 9.5 7.2 64 3.3 SW 20 32 11 17 1018.4 1018.6 0.0
29/03:30pm 13.9 9.7 7.4 65 3.2 WSW 19 26 10 14 1017.6 1017.7 0.0
29/03:00pm 15.1 10.8 7.9 62 3.7 WSW 20 35 11 19 1017.2 1017.3 0.0
29/02:30pm 15.7 11.1 8.2 61 3.8 WSW 22 32 12 17 1016.9 1017.0 0.0
29/02:00pm 15.6 10.9 7.9 60 3.9 W 22 32 12 17 1016.6 1016.7 0.0
29/01:30pm 15.6 11.1 8.6 63 3.6 WSW 22 33 12 18 1016.4 1016.5 0.0
29/01:00pm 15.3 10.9 8.8 65 3.4 WSW 22 32 12 17 1016.3 1016.4 0.0
29/12:30pm 14.2 10.1 8.6 69 2.9 W 20 28 11 15 1016.5 1016.6 0.0
29/12:00pm 14.7 10.9 9.9 73 2.5 W 20 30 11 16 1016.5 1016.6 0.0
29/11:30am 14.4 10.5 9.6 73 2.5 W 20 33 11 18 1016.6 1016.7 0.0
29/11:00am 14.3 10.9 10.5 78 2.0 W 19 26 10 14 1016.6 1016.7 0.0
29/10:30am 13.6 10.1 10.2 80 1.8 WNW 19 28 10 15 1016.7 1016.8 0.0
29/10:00am 13.0 9.9 10.2 83 1.5 WNW 17 26 9 14 1016.6 1016.7 0.0
29/09:30am 11.9 9.6 10.5 91 0.7 WNW 13 20 7 11 1016.3 1016.4 0.0
29/09:00am 10.9 8.8 9.7 92 0.6 WNW 11 19 6 10 1016.1 1016.2 2.0
29/08:30am 10.1 7.4 8.9 92 0.6 NW 13 17 7 9 1015.8 1015.9 2.0
29/08:00am 9.6 7.9 8.4 92 0.6 WNW 7 11 4 6 1015.4 1015.5 2.0
29/07:30am 9.4 7.7 8.2 92 0.6 W 7 13 4 7 1015.1 1015.2 2.0
29/07:00am 9.4 7.2 8.0 91 0.7 W 9 15 5 8 1014.7 1014.8 2.0
29/06:30am 9.4 7.6 8.0 91 0.7 WNW 7 9 4 5 1014.2 1014.3 2.0
29/06:00am 10.2 8.2 8.8 91 0.7 WNW 9 13 5 7 1013.7 1013.8 2.0
29/05:30am 10.9 8.3 9.5 91 0.7 W 13 20 7 11 1013.4 1013.5 2.0
29/05:00am 11.2 9.1 9.8 91 0.7 W 11 15 6 8 1013.2 1013.3 2.0
29/04:30am 11.7 9.7 10.3 91 0.7 WNW 11 15 6 8 1013.0 1013.1 2.0
29/04:00am 11.7 9.7 10.3 91 0.7 WNW 11 15 6 8 1012.7 1012.7 2.0
29/03:30am 12.1 10.3 10.7 91 0.7 WNW 11 17 6 9 1012.9 1012.9 2.0
29/03:00am 12.1 10.3 10.7 91 0.7 WNW 11 17 6 9 1012.6 1012.6 2.0
29/02:30am 12.1 9.9 10.7 91 0.7 WNW 13 22 7 12 1012.5 1012.5 2.0
29/02:00am 12.2 9.7 10.9 92 0.7 NW 15 24 8 13 1012.5 1012.5 2.0
29/01:30am 12.3 9.8 10.9 91 0.7 WNW 15 20 8 11 1012.2 1012.3 2.0
29/01:00am 12.4 9.9 11.0 91 0.7 WNW 15 22 8 12 1012.2 1012.3 2.0
29/12:30am 12.4 9.9 11.0 91 0.7 WNW 15 22 8 12 1012.0 1012.1 2.0
29/12:00am 12.7 9.3 11.3 91 0.8 WNW 20 32 11 17 1012.2 1012.3 2.0
 
Date/Time
WST
Temp
°C
App
Temp
°C
Dew
Point
°C
Rel
Hum
%
Delta-T
°C
Wind Press
QNH
hPa
Press
MSL
hPa
Rain since
9am
mm
Dir  Spd
km/h
Gust
km/h
Spd
kts
Gust
kts
28/11:30pm 12.8 9.4 11.4 91 0.8 NW 20 26 11 14 1012.2 1012.3 2.0
28/11:00pm 12.7 9.9 11.3 91 0.8 NW 17 24 9 13 1012.1 1012.2 2.0
28/10:30pm 12.7 9.9 11.3 91 0.8 NW 17 22 9 12 1012.4 1012.4 1.8
28/10:00pm 12.8 10.4 11.4 91 0.8 NW 15 26 8 14 1012.1 1012.2 1.8
28/09:30pm 12.7 9.9 11.4 92 0.7 NW 17 24 9 13 1012.2 1012.3 1.8
28/09:00pm 12.4 10.3 11.1 92 0.7 NW 13 20 7 11 1012.4 1012.4 1.8
28/08:30pm 12.1 9.5 10.8 92 0.7 NNW 15 19 8 10 1012.1 1012.2 1.8
28/08:00pm 11.7 9.0 10.4 92 0.7 NNW 15 19 8 10 1012.2 1012.3 1.8
28/07:30pm 11.7 9.4 10.3 91 0.7 NNW 13 17 7 9 1012.1 1012.2 1.8
28/07:00pm 11.9 9.2 10.5 91 0.7 N 15 19 8 10 1011.9 1012.0 1.8
28/06:30pm 12.2 9.6 10.8 91 0.7 N 15 19 8 10 1011.9 1012.0 1.8
28/06:00pm 12.4 10.2 10.8 90 0.8 N 13 15 7 8 1011.5 1011.6 1.8
28/05:30pm 12.5 10.7 10.7 89 1.0 N 11 15 6 8 1011.6 1011.7 1.6
28/05:00pm 12.9 11.5 11.0 88 1.0 NW 9 13 5 7 1011.7 1011.8 1.4
28/04:30pm 13.2 11.4 10.9 86 1.2 NW 11 15 6 8 1011.6 1011.7 1.0
28/04:00pm 13.7 12.7 11.0 84 1.4 WNW 7 13 4 7 1011.5 1011.6 0.2
28/03:30pm 13.7 12.3 11.0 84 1.4 WNW 9 11 5 6 1011.3 1011.4 0.2
28/03:00pm 14.2 11.4 10.0 76 2.2 W 15 24 8 13 1011.5 1011.6 0.2
28/02:30pm 15.4 10.3 9.1 66 3.3 NW 26 37 14 20 1011.2 1011.3 0.2
28/02:00pm 15.8 10.9 8.5 62 3.8 NW 24 37 13 20 1011.0 1011.1 0.2
28/01:30pm 16.5 12.4 8.7 60 4.1 NW 20 30 11 16 1010.9 1011.0 0.2
28/01:00pm 16.0 10.6 8.2 60 4.0 NW 26 33 14 18 1011.3 1011.4 0.2
28/12:30pm 16.0 11.2 7.5 57 4.3 NW 22 37 12 20 1011.7 1011.8 0.2
28/12:00pm 16.6 11.5 7.8 56 4.5 NW 24 37 13 20 1012.1 1012.2 0.0
28/11:30am 15.7 10.4 7.0 56 4.4 NW 24 37 13 20 1012.8 1012.8 0.0
28/11:00am 14.4 9.0 6.5 59 3.9 NW 24 35 13 19 1013.1 1013.2 0.0
28/10:30am 13.9 8.1 6.3 60 3.7 NNW 26 32 14 17 1013.2 1013.3 0.0
28/10:00am 12.3 7.2 6.1 66 3.0 NNW 22 28 12 15 1013.5 1013.6 0.0
28/09:30am 10.9 6.4 5.9 71 2.4 NNW 19 28 10 15 1013.9 1014.0 0.0
28/09:00am 9.3 6.2 5.7 78 1.7 N 11 17 6 9 1013.7 1013.8 0.0
28/08:30am 7.9 3.9 4.8 81 1.4 N 15 20 8 11 1013.7 1013.8 0.0
28/08:00am 5.4 2.9 3.7 89 0.7 NNW 6 9 3 5 1013.8 1013.9 0.0
28/07:30am 3.9 1.2 2.4 90 0.6 NW 6 9 3 5 1013.7 1013.8 0.0
28/07:00am 3.3 0.8 1.8 90 0.6 N 4 6 2 3 1013.7 1013.8 0.0
28/06:30am 2.3 0.0 0.7 89 0.6 NNE 2 4 1 2 1013.6 1013.7 0.0
28/06:00am 1.7 -1.0 0.1 89 0.6 NNE 4 6 2 3 1013.4 1013.5 0.0
28/05:30am 1.8 -0.9 0.2 89 0.6 NNE 4 4 2 2 1013.5 1013.6 0.0
28/05:00am 1.7 -1.0 0.1 89 0.6 NNE 4 4 2 2 1013.6 1013.7 0.0
28/04:30am 1.8 -0.6 0.0 88 0.7 NNE 2 4 1 2 1013.6 1013.7 0.0
28/04:00am 2.7 0.5 1.2 90 0.6 NNE 2 4 1 2 1013.7 1013.8 0.0
28/03:30am 1.9 -0.4 0.3 89 0.6 N 2 6 1 3 1014.1 1014.2 0.0
28/03:00am 1.7 -0.3 0.1 89 0.6 CALM 0 2 0 1 1014.4 1014.5 0.0
28/02:30am 1.9 -0.8 0.3 89 0.6 SW 4 6 2 3 1014.7 1014.8 0.0
28/02:00am 2.2 0.3 0.6 89 0.6 CALM 0 0 0 0 1014.8 1014.9 0.0
28/01:30am 2.8 0.3 1.3 90 0.6 ENE 4 6 2 3 1015.0 1015.1 0.0
28/01:00am 1.0 -1.1 -0.5 90 0.5 CALM 0 0 0 0 1015.2 1015.3 0.0
28/12:30am 1.1 -1.3 -0.5 89 0.6 SW 2 4 1 2 1015.5 1015.7 0.0
28/12:00am 1.6 -0.8 0.0 89 0.6 S 2 2 1 1 1015.9 1016.0 0.0
 
Date/Time
WST
Temp
°C
App
Temp
°C
Dew
Point
°C
Rel
Hum
%
Delta-T
°C
Wind Press
QNH
hPa
Press
MSL
hPa
Rain since
9am
mm
Dir  Spd
km/h
Gust
km/h
Spd
kts
Gust
kts
27/11:30pm 2.2 -0.1 0.6 89 0.6 ENE 2 4 1 2 1016.2 1016.3 0.0
27/11:00pm 1.7 -0.6 0.1 89 0.6 NW 2 4 1 2 1016.4 1016.5 0.0
27/10:30pm 2.5 -0.1 0.9 89 0.6 NW 4 4 2 2 1016.5 1016.6 0.0
27/10:00pm 1.1 -1.0 -0.7 88 0.7 CALM 0 2 0 1 1016.7 1016.8 0.0
27/09:30pm 1.5 -0.5 -0.3 88 0.7 CALM 0 0 0 0 1016.9 1017.0 0.0
27/09:00pm 1.6 -0.5 -0.5 86 0.8 CALM 0 0 0 0 1017.0 1017.1 0.0
27/08:30pm 2.2 0.2 -0.1 85 0.9 CALM 0 0 0 0 1017.1 1017.2 0.0
27/08:00pm 2.5 0.5 -0.4 81 1.1 CALM 0 2 0 1 1017.2 1017.3 0.0
27/07:30pm 4.0 0.7 0.3 77 1.4 NNW 7 7 4 4 1017.2 1017.3 0.0
27/07:00pm 5.7 2.7 2.2 78 1.4 NNW 7 7 4 4 1017.2 1017.3 0.0
27/06:30pm 6.2 3.2 1.9 74 1.8 NW 7 7 4 4 1017.1 1017.2 0.0
27/06:00pm 7.1 3.8 2.6 73 1.9 NNW 9 9 5 5 1016.9 1017.0 0.0
27/05:30pm 8.3 4.6 2.5 67 2.5 NNW 11 13 6 7 1016.7 1016.8 0.0
27/05:00pm 10.3 6.7 2.9 60 3.2 N 11 15 6 8 1016.5 1016.6 0.0

Other Formats:

Comma delimited format used in spreadsheet applications
http://www.bom.gov.au/fwo/IDW60801/IDW60801.94628.axf

JavaScript Object Notation format (JSON) in row-major order
http://www.bom.gov.au/fwo/IDW60801/IDW60801.94628.json